sensor_id;sensor_type;location;lat;lon;timestamp;pressure;altitude;pressure_sealevel;temperature;humidity
6567;BME280;3317;43.994;22.878;2023-08-30T00:00:31;99849.13;;;25.67;62.76
6567;BME280;3317;43.994;22.878;2023-08-30T00:02:58;99827.75;;;25.52;62.80
6567;BME280;3317;43.994;22.878;2023-08-30T00:05:25;99843.56;;;25.62;63.57
6567;BME280;3317;43.994;22.878;2023-08-30T00:07:53;99837.75;;;25.58;64.40
6567;BME280;3317;43.994;22.878;2023-08-30T00:10:20;99845.75;;;25.50;63.26
6567;BME280;3317;43.994;22.878;2023-08-30T00:12:47;99847.38;;;25.35;62.95
6567;BME280;3317;43.994;22.878;2023-08-30T00:15:14;99888.19;;;25.55;63.22
6567;BME280;3317;43.994;22.878;2023-08-30T00:17:43;99880.69;;;25.51;63.60
6567;BME280;3317;43.994;22.878;2023-08-30T00:20:11;99867.94;;;25.50;63.93
6567;BME280;3317;43.994;22.878;2023-08-30T00:22:38;99860.72;;;25.49;62.84
6567;BME280;3317;43.994;22.878;2023-08-30T00:25:05;99881.22;;;25.48;62.92
6567;BME280;3317;43.994;22.878;2023-08-30T00:27:32;99887.06;;;25.46;63.29
6567;BME280;3317;43.994;22.878;2023-08-30T00:29:59;99908.66;;;25.44;64.57
6567;BME280;3317;43.994;22.878;2023-08-30T00:32:26;99933.38;;;25.40;63.86
6567;BME280;3317;43.994;22.878;2023-08-30T00:34:55;99944.72;;;25.39;63.28
6567;BME280;3317;43.994;22.878;2023-08-30T00:37:22;99939.16;;;25.39;62.70
6567;BME280;3317;43.994;22.878;2023-08-30T00:39:49;99938.03;;;25.29;63.72
6567;BME280;3317;43.994;22.878;2023-08-30T00:42:16;99913.63;;;25.26;63.34
6567;BME280;3317;43.994;22.878;2023-08-30T00:44:43;99919.47;;;25.30;61.58
6567;BME280;3317;43.994;22.878;2023-08-30T00:47:11;99908.94;;;25.27;62.51
6567;BME280;3317;43.994;22.878;2023-08-30T00:49:39;99928.34;;;25.27;63.35
6567;BME280;3317;43.994;22.878;2023-08-30T00:52:09;99933.59;;;25.28;63.81
6567;BME280;3317;43.994;22.878;2023-08-30T00:54:38;99937.47;;;25.27;62.83
6567;BME280;3317;43.994;22.878;2023-08-30T00:57:06;99945.22;;;25.25;62.97
6567;BME280;3317;43.994;22.878;2023-08-30T00:59:33;99923.03;;;25.20;63.35
6567;BME280;3317;43.994;22.878;2023-08-30T01:02:02;99943.00;;;25.22;63.86
6567;BME280;3317;43.994;22.878;2023-08-30T01:04:29;99958.78;;;25.22;62.42
6567;BME280;3317;43.994;22.878;2023-08-30T01:06:56;99959.59;;;25.17;60.27
6567;BME280;3317;43.994;22.878;2023-08-30T01:09:25;99959.59;;;25.17;59.95
6567;BME280;3317;43.994;22.878;2023-08-30T01:11:57;99972.09;;;25.20;56.77
6567;BME280;3317;43.994;22.878;2023-08-30T01:14:30;99972.09;;;25.14;56.66
6567;BME280;3317;43.994;22.878;2023-08-30T01:17:00;99971.53;;;25.12;57.27
6567;BME280;3317;43.994;22.878;2023-08-30T01:19:41;99971.50;;;25.07;57.66
6567;BME280;3317;43.994;22.878;2023-08-30T01:22:16;99966.19;;;25.00;57.50
6567;BME280;3317;43.994;22.878;2023-08-30T01:24:52;99955.09;;;25.00;60.13
6567;BME280;3317;43.994;22.878;2023-08-30T01:27:26;99965.06;;;24.96;61.38
6567;BME280;3317;43.994;22.878;2023-08-30T01:29:58;99978.63;;;24.98;61.35
6567;BME280;3317;43.994;22.878;2023-08-30T01:32:25;100001.97;;;25.02;57.37
6567;BME280;3317;43.994;22.878;2023-08-30T01:34:55;100002.75;;;24.97;57.23
6567;BME280;3317;43.994;22.878;2023-08-30T01:37:22;100009.09;;;24.93;57.88
6567;BME280;3317;43.994;22.878;2023-08-30T01:39:52;100005.22;;;24.88;58.96
6567;BME280;3317;43.994;22.878;2023-08-30T01:42:19;100012.66;;;24.88;61.06
6567;BME280;3317;43.994;22.878;2023-08-30T01:44:50;99992.16;;;24.84;60.74
6567;BME280;3317;43.994;22.878;2023-08-30T01:47:21;99972.91;;;24.72;61.94
6567;BME280;3317;43.994;22.878;2023-08-30T01:49:49;99981.31;;;24.77;64.00
6567;BME280;3317;43.994;22.878;2023-08-30T01:52:17;99990.78;;;24.86;64.32
6567;BME280;3317;43.994;22.878;2023-08-30T01:54:45;99973.31;;;24.86;64.06
6567;BME280;3317;43.994;22.878;2023-08-30T01:57:13;99950.31;;;24.85;61.08
6567;BME280;3317;43.994;22.878;2023-08-30T01:59:40;99920.38;;;24.82;60.99
6567;BME280;3317;43.994;22.878;2023-08-30T02:02:08;99898.97;;;24.72;66.65
6567;BME280;3317;43.994;22.878;2023-08-30T02:04:35;99908.63;;;24.65;67.33
6567;BME280;3317;43.994;22.878;2023-08-30T02:07:04;99916.38;;;24.63;65.98
6567;BME280;3317;43.994;22.878;2023-08-30T02:09:39;99913.06;;;24.60;65.39
6567;BME280;3317;43.994;22.878;2023-08-30T02:12:12;99923.28;;;24.60;64.90
6567;BME280;3317;43.994;22.878;2023-08-30T02:14:43;99918.00;;;24.58;65.87
6567;BME280;3317;43.994;22.878;2023-08-30T02:17:14;99920.25;;;24.61;66.15
6567;BME280;3317;43.994;22.878;2023-08-30T02:19:41;99921.06;;;24.62;65.67
6567;BME280;3317;43.994;22.878;2023-08-30T02:22:09;99886.88;;;24.36;64.92
6567;BME280;3317;43.994;22.878;2023-08-30T02:24:36;99928.28;;;24.63;64.91
6567;BME280;3317;43.994;22.878;2023-08-30T02:27:03;99944.63;;;24.65;60.80
6567;BME280;3317;43.994;22.878;2023-08-30T02:29:31;99952.41;;;24.68;58.01
6567;BME280;3317;43.994;22.878;2023-08-30T02:31:58;99964.03;;;24.70;59.19
6567;BME280;3317;43.994;22.878;2023-08-30T02:34:27;99967.34;;;24.61;60.58
6567;BME280;3317;43.994;22.878;2023-08-30T02:36:54;99969.50;;;24.54;60.60
6567;BME280;3317;43.994;22.878;2023-08-30T02:39:21;99967.50;;;24.50;60.81
6567;BME280;3317;43.994;22.878;2023-08-30T02:41:49;99946.13;;;24.40;60.51
6567;BME280;3317;43.994;22.878;2023-08-30T02:44:16;99956.09;;;24.41;60.72
6567;BME280;3317;43.994;22.878;2023-08-30T02:46:42;99936.97;;;24.34;61.53
6567;BME280;3317;43.994;22.878;2023-08-30T02:49:10;99931.09;;;24.30;65.31
6567;BME280;3317;43.994;22.878;2023-08-30T02:51:38;99938.59;;;24.30;67.02
6567;BME280;3317;43.994;22.878;2023-08-30T02:54:05;99915.34;;;24.31;67.62
6567;BME280;3317;43.994;22.878;2023-08-30T02:56:32;99904.00;;;24.32;67.22
6567;BME280;3317;43.994;22.878;2023-08-30T02:59:00;99884.63;;;24.32;67.43
6567;BME280;3317;43.994;22.878;2023-08-30T03:01:26;99802.41;;;23.95;64.12
6567;BME280;3317;43.994;22.878;2023-08-30T03:03:53;99859.19;;;24.36;61.18
6567;BME280;3317;43.994;22.878;2023-08-30T03:06:20;99851.38;;;24.32;62.57
6567;BME280;3317;43.994;22.878;2023-08-30T03:08:48;99852.50;;;24.31;65.23
6567;BME280;3317;43.994;22.878;2023-08-30T03:11:15;99864.97;;;24.34;65.09
6567;BME280;3317;43.994;22.878;2023-08-30T03:13:43;99859.44;;;24.34;66.28
6567;BME280;3317;43.994;22.878;2023-08-30T03:16:10;99856.66;;;24.34;67.06
6567;BME280;3317;43.994;22.878;2023-08-30T03:18:40;99850.56;;;24.32;67.72
6567;BME280;3317;43.994;22.878;2023-08-30T03:21:08;99843.06;;;24.27;66.06
6567;BME280;3317;43.994;22.878;2023-08-30T03:23:35;99871.59;;;24.28;64.64
6567;BME280;3317;43.994;22.878;2023-08-30T03:26:09;99838.91;;;23.87;66.43
6567;BME280;3317;43.994;22.878;2023-08-30T03:28:36;99925.09;;;24.39;61.09
6567;BME280;3317;43.994;22.878;2023-08-30T03:31:11;99946.63;;;24.31;64.66
6567;BME280;3317;43.994;22.878;2023-08-30T03:33:38;99938.19;;;24.16;63.57
6567;BME280;3317;43.994;22.878;2023-08-30T03:36:07;99935.13;;;24.12;63.47
6567;BME280;3317;43.994;22.878;2023-08-30T03:38:35;99941.34;;;23.97;66.08
6567;BME280;3317;43.994;22.878;2023-08-30T03:41:02;99954.88;;;23.94;65.37
6567;BME280;3317;43.994;22.878;2023-08-30T03:43:32;99915.16;;;23.77;66.92
6567;BME280;3317;43.994;22.878;2023-08-30T03:46:00;99915.63;;;23.69;70.33
6567;BME280;3317;43.994;22.878;2023-08-30T03:48:28;99916.34;;;23.59;71.32
6567;BME280;3317;43.994;22.878;2023-08-30T03:50:56;99921.34;;;23.62;68.08
6567;BME280;3317;43.994;22.878;2023-08-30T03:53:24;99923.56;;;23.60;67.34
6567;BME280;3317;43.994;22.878;2023-08-30T03:55:51;99922.22;;;23.63;68.79
6567;BME280;3317;43.994;22.878;2023-08-30T03:58:18;99928.06;;;23.67;70.06
6567;BME280;3317;43.994;22.878;2023-08-30T04:00:47;99932.22;;;23.69;70.45
6567;BME280;3317;43.994;22.878;2023-08-30T04:03:15;99937.25;;;23.72;71.02
6567;BME280;3317;43.994;22.878;2023-08-30T04:05:42;99934.19;;;23.74;69.48
6567;BME280;3317;43.994;22.878;2023-08-30T04:08:09;99948.59;;;23.76;70.07
6567;BME280;3317;43.994;22.878;2023-08-30T04:10:37;99951.69;;;23.80;70.47
6567;BME280;3317;43.994;22.878;2023-08-30T04:13:04;99946.09;;;23.74;69.56
6567;BME280;3317;43.994;22.878;2023-08-30T04:15:32;99953.94;;;23.83;69.91
6567;BME280;3317;43.994;22.878;2023-08-30T04:18:02;99943.38;;;23.80;64.58
6567;BME280;3317;43.994;22.878;2023-08-30T04:20:30;99948.41;;;23.83;65.60
6567;BME280;3317;43.994;22.878;2023-08-30T04:22:57;99950.97;;;23.89;66.68
6567;BME280;3317;43.994;22.878;2023-08-30T04:25:27;99947.91;;;23.91;69.07
6567;BME280;3317;43.994;22.878;2023-08-30T04:27:54;99945.72;;;23.93;70.40
6567;BME280;3317;43.994;22.878;2023-08-30T04:30:21;99943.81;;;23.94;70.46
6567;BME280;3317;43.994;22.878;2023-08-30T04:32:48;99943.81;;;23.94;71.02
6567;BME280;3317;43.994;22.878;2023-08-30T04:35:16;99954.88;;;23.94;70.62
6567;BME280;3317;43.994;22.878;2023-08-30T04:37:43;99958.72;;;23.93;69.40
6567;BME280;3317;43.994;22.878;2023-08-30T04:40:10;99962.31;;;23.93;71.07
6567;BME280;3317;43.994;22.878;2023-08-30T04:42:37;99972.28;;;23.94;71.55
6567;BME280;3317;43.994;22.878;2023-08-30T04:45:07;99977.25;;;23.92;71.77
6567;BME280;3317;43.994;22.878;2023-08-30T04:47:35;99977.81;;;23.94;71.61
6567;BME280;3317;43.994;22.878;2023-08-30T04:50:02;99988.06;;;23.94;71.53
6567;BME280;3317;43.994;22.878;2023-08-30T04:52:31;99986.13;;;23.94;71.59
6567;BME280;3317;43.994;22.878;2023-08-30T04:54:58;99920.09;;;23.48;71.59
6567;BME280;3317;43.994;22.878;2023-08-30T04:57:25;100007.75;;;23.97;71.12
6567;BME280;3317;43.994;22.878;2023-08-30T04:59:52;100003.34;;;24.01;67.38
6567;BME280;3317;43.994;22.878;2023-08-30T05:02:19;99993.38;;;24.00;68.29
6567;BME280;3317;43.994;22.878;2023-08-30T05:04:46;99992.06;;;24.03;70.26
6567;BME280;3317;43.994;22.878;2023-08-30T05:07:13;99987.09;;;24.05;69.04
6567;BME280;3317;43.994;22.878;2023-08-30T05:09:41;99977.41;;;24.08;69.28
6567;BME280;3317;43.994;22.878;2023-08-30T05:12:08;99973.88;;;24.12;70.14
6567;BME280;3317;43.994;22.878;2023-08-30T05:14:35;99956.16;;;24.13;70.58
6567;BME280;3317;43.994;22.878;2023-08-30T05:17:02;99945.38;;;24.12;72.52
6567;BME280;3317;43.994;22.878;2023-08-30T05:19:29;99947.06;;;24.18;73.06
6567;BME280;3317;43.994;22.878;2023-08-30T05:21:57;99954.31;;;24.24;72.04
6567;BME280;3317;43.994;22.878;2023-08-30T05:24:23;99943.75;;;24.21;71.53
6567;BME280;3317;43.994;22.878;2023-08-30T05:26:53;99813.81;;;23.33;71.24
6567;BME280;3317;43.994;22.878;2023-08-30T05:29:20;99973.84;;;24.45;71.52
6567;BME280;3317;43.994;22.878;2023-08-30T05:31:47;99965.31;;;24.52;71.59
6567;BME280;3317;43.994;22.878;2023-08-30T05:34:14;99959.53;;;24.58;69.65
6567;BME280;3317;43.994;22.878;2023-08-30T05:36:41;99954.63;;;24.66;70.10
6567;BME280;3317;43.994;22.878;2023-08-30T05:39:08;99948.84;;;24.72;69.47
6567;BME280;3317;43.994;22.878;2023-08-30T05:41:35;99946.97;;;24.78;69.75
6567;BME280;3317;43.994;22.878;2023-08-30T05:44:04;99947.53;;;24.80;69.96
6567;BME280;3317;43.994;22.878;2023-08-30T05:46:31;99933.56;;;24.65;69.50
6567;BME280;3317;43.994;22.878;2023-08-30T05:48:58;99940.53;;;24.72;69.76
6567;BME280;3317;43.994;22.878;2023-08-30T05:51:26;99952.25;;;24.80;69.00
6567;BME280;3317;43.994;22.878;2023-08-30T05:53:53;99958.09;;;24.88;69.25
6567;BME280;3317;43.994;22.878;2023-08-30T05:56:20;99956.22;;;24.99;68.33
6567;BME280;3317;43.994;22.878;2023-08-30T05:58:46;99958.47;;;25.08;69.60
6567;BME280;3317;43.994;22.878;2023-08-30T06:01:18;99958.78;;;25.16;70.46
6567;BME280;3317;43.994;22.878;2023-08-30T06:03:45;99972.09;;;25.25;70.58
6567;BME280;3317;43.994;22.878;2023-08-30T06:06:12;99967.44;;;25.36;70.17
6567;BME280;3317;43.994;22.878;2023-08-30T06:08:39;99973.59;;;25.48;68.34
6567;BME280;3317;43.994;22.878;2023-08-30T06:11:06;99967.25;;;25.53;68.34
6567;BME280;3317;43.994;22.878;2023-08-30T06:13:33;99958.13;;;25.57;68.47
6567;BME280;3317;43.994;22.878;2023-08-30T06:16:00;99973.97;;;25.83;68.22
6567;BME280;3317;43.994;22.878;2023-08-30T06:18:30;99963.72;;;25.89;67.72
6567;BME280;3317;43.994;22.878;2023-08-30T06:20:59;99964.84;;;26.08;66.41
6567;BME280;3317;43.994;22.878;2023-08-30T06:23:25;99965.94;;;26.18;66.83
6567;BME280;3317;43.994;22.878;2023-08-30T06:25:54;99946.25;;;26.24;66.02
6567;BME280;3317;43.994;22.878;2023-08-30T06:28:22;99956.81;;;26.43;65.14
6567;BME280;3317;43.994;22.878;2023-08-30T06:30:50;99942.34;;;26.51;65.35
6567;BME280;3317;43.994;22.878;2023-08-30T06:33:19;99951.22;;;26.64;65.22
6567;BME280;3317;43.994;22.878;2023-08-30T06:35:49;99971.19;;;26.81;64.80
6567;BME280;3317;43.994;22.878;2023-08-30T06:38:18;99972.28;;;26.91;64.03
6567;BME280;3317;43.994;22.878;2023-08-30T06:40:46;99987.84;;;27.07;63.21
6567;BME280;3317;43.994;22.878;2023-08-30T06:43:13;99991.66;;;27.17;62.92
6567;BME280;3317;43.994;22.878;2023-08-30T06:45:41;99984.16;;;27.17;62.13
6567;BME280;3317;43.994;22.878;2023-08-30T06:48:08;100006.03;;;27.39;62.33
6567;BME280;3317;43.994;22.878;2023-08-30T06:50:35;100012.38;;;27.50;61.56
6567;BME280;3317;43.994;22.878;2023-08-30T06:53:04;100013.22;;;27.61;60.70
6567;BME280;3317;43.994;22.878;2023-08-30T06:55:31;100000.59;;;27.74;59.87
6567;BME280;3317;43.994;22.878;2023-08-30T06:57:59;100005.31;;;27.84;59.67
6567;BME280;3317;43.994;22.878;2023-08-30T07:00:29;100008.84;;;27.95;59.25
6567;BME280;3317;43.994;22.878;2023-08-30T07:02:59;100010.16;;;28.03;58.63
6567;BME280;3317;43.994;22.878;2023-08-30T07:05:26;100020.13;;;28.09;57.91
6567;BME280;3317;43.994;22.878;2023-08-30T07:07:53;100013.75;;;28.08;58.11
6567;BME280;3317;43.994;22.878;2023-08-30T07:10:21;100005.03;;;28.25;58.01
6567;BME280;3317;43.994;22.878;2023-08-30T07:12:48;100003.84;;;28.32;57.85
6567;BME280;3317;43.994;22.878;2023-08-30T07:15:15;100001.13;;;28.21;56.85
6567;BME280;3317;43.994;22.878;2023-08-30T07:17:43;99994.06;;;28.00;57.55
6567;BME280;3317;43.994;22.878;2023-08-30T07:20:11;100000.16;;;28.02;57.76
6567;BME280;3317;43.994;22.878;2023-08-30T07:22:37;99924.66;;;27.74;58.00
6567;BME280;3317;43.994;22.878;2023-08-30T07:25:04;99991.03;;;28.36;57.70
6567;BME280;3317;43.994;22.878;2023-08-30T07:27:33;99986.13;;;28.52;57.13
6567;BME280;3317;43.994;22.878;2023-08-30T07:30:00;99992.88;;;28.75;57.42
6567;BME280;3317;43.994;22.878;2023-08-30T07:32:27;99989.88;;;28.96;56.99
6567;BME280;3317;43.994;22.878;2023-08-30T07:34:54;99991.91;;;29.15;55.86
6567;BME280;3317;43.994;22.878;2023-08-30T07:37:21;99986.00;;;29.41;54.47
6567;BME280;3317;43.994;22.878;2023-08-30T07:39:48;99990.31;;;29.52;53.79
6567;BME280;3317;43.994;22.878;2023-08-30T07:42:15;99995.63;;;29.73;53.78
6567;BME280;3317;43.994;22.878;2023-08-30T07:44:45;99990.72;;;29.84;53.23
6567;BME280;3317;43.994;22.878;2023-08-30T07:47:12;100009.66;;;29.68;52.40
6567;BME280;3317;43.994;22.878;2023-08-30T07:49:38;100013.66;;;29.61;53.01
6567;BME280;3317;43.994;22.878;2023-08-30T07:52:06;100013.81;;;29.70;52.91
6567;BME280;3317;43.994;22.878;2023-08-30T07:54:33;100009.16;;;29.85;53.45
6567;BME280;3317;43.994;22.878;2023-08-30T07:57:00;100003.50;;;30.09;52.85
6567;BME280;3317;43.994;22.878;2023-08-30T07:59:28;100006.50;;;30.32;52.19
6567;BME280;3317;43.994;22.878;2023-08-30T08:01:56;100008.28;;;30.56;52.32
6567;BME280;3317;43.994;22.878;2023-08-30T08:04:23;100002.81;;;30.51;50.49
6567;BME280;3317;43.994;22.878;2023-08-30T08:06:50;99992.59;;;30.60;51.02
6567;BME280;3317;43.994;22.878;2023-08-30T08:09:17;100003.22;;;30.91;50.18
6567;BME280;3317;43.994;22.878;2023-08-30T08:11:43;100009.34;;;31.21;50.33
6567;BME280;3317;43.994;22.878;2023-08-30T08:14:10;99999.44;;;31.29;48.69
6567;BME280;3317;43.994;22.878;2023-08-30T08:16:38;99987.19;;;31.39;49.29
6567;BME280;3317;43.994;22.878;2023-08-30T08:19:06;100000.63;;;31.51;48.23
6567;BME280;3317;43.994;22.878;2023-08-30T08:21:33;99998.75;;;31.46;47.79
6567;BME280;3317;43.994;22.878;2023-08-30T08:24:00;100001.84;;;31.58;48.13
6567;BME280;3317;43.994;22.878;2023-08-30T08:26:27;99996.94;;;31.78;48.75
6567;BME280;3317;43.994;22.878;2023-08-30T08:28:54;100006.41;;;32.05;48.85
6567;BME280;3317;43.994;22.878;2023-08-30T08:31:21;100004.88;;;32.22;47.56
6567;BME280;3317;43.994;22.878;2023-08-30T08:33:51;100010.34;;;32.41;47.25
6567;BME280;3317;43.994;22.878;2023-08-30T08:36:19;100009.63;;;32.35;45.55
6567;BME280;3317;43.994;22.878;2023-08-30T08:38:49;99996.00;;;32.42;46.66
6567;BME280;3317;43.994;22.878;2023-08-30T08:41:16;99971.16;;;32.27;44.96
6567;BME280;3317;43.994;22.878;2023-08-30T08:43:43;100010.34;;;32.72;46.07
6567;BME280;3317;43.994;22.878;2023-08-30T08:46:13;100009.19;;;32.96;45.63
6567;BME280;3317;43.994;22.878;2023-08-30T08:48:43;100005.78;;;32.77;44.65
6567;BME280;3317;43.994;22.878;2023-08-30T08:51:11;99999.00;;;32.78;45.23
6567;BME280;3317;43.994;22.878;2023-08-30T08:53:41;100000.50;;;32.52;44.50
6567;BME280;3317;43.994;22.878;2023-08-30T08:56:09;100012.97;;;32.37;44.88
6567;BME280;3317;43.994;22.878;2023-08-30T08:58:36;99999.69;;;32.52;45.23
6567;BME280;3317;43.994;22.878;2023-08-30T09:01:04;100008.69;;;32.71;45.29
6567;BME280;3317;43.994;22.878;2023-08-30T09:03:33;100006.00;;;32.89;44.91
6567;BME280;3317;43.994;22.878;2023-08-30T09:06:02;99997.50;;;33.12;44.89
6567;BME280;3317;43.994;22.878;2023-08-30T09:08:29;100003.03;;;33.35;43.44
6567;BME280;3317;43.994;22.878;2023-08-30T09:10:58;100001.19;;;33.30;41.83
6567;BME280;3317;43.994;22.878;2023-08-30T09:13:25;99983.53;;;33.29;42.33
6567;BME280;3317;43.994;22.878;2023-08-30T09:15:52;99989.66;;;33.40;41.45
6567;BME280;3317;43.994;22.878;2023-08-30T09:18:19;99990.56;;;33.59;42.09
6567;BME280;3317;43.994;22.878;2023-08-30T09:20:46;99993.50;;;33.53;41.07
6567;BME280;3317;43.994;22.878;2023-08-30T09:23:17;99998.19;;;33.67;42.66
6567;BME280;3317;43.994;22.878;2023-08-30T09:25:44;99989.25;;;33.82;41.71
6567;BME280;3317;43.994;22.878;2023-08-30T09:28:13;99987.25;;;33.92;40.77
6567;BME280;3317;43.994;22.878;2023-08-30T09:30:40;99994.22;;;33.68;40.62
6567;BME280;3317;43.994;22.878;2023-08-30T09:33:07;99986.09;;;33.58;40.59
6567;BME280;3317;43.994;22.878;2023-08-30T09:35:43;99986.91;;;33.58;41.39
6567;BME280;3317;43.994;22.878;2023-08-30T09:38:16;99981.94;;;33.46;41.24
6567;BME280;3317;43.994;22.878;2023-08-30T09:40:44;99980.66;;;33.70;41.82
6567;BME280;3317;43.994;22.878;2023-08-30T09:43:13;99978.03;;;34.00;42.10
6567;BME280;3317;43.994;22.878;2023-08-30T09:45:40;99974.69;;;34.24;41.16
6567;BME280;3317;43.994;22.878;2023-08-30T09:48:08;99968.19;;;34.59;41.02
6567;BME280;3317;43.994;22.878;2023-08-30T09:50:36;99973.81;;;34.41;39.76
6567;BME280;3317;43.994;22.878;2023-08-30T09:53:06;99971.50;;;34.44;39.82
6567;BME280;3317;43.994;22.878;2023-08-30T09:55:33;99956.13;;;34.50;39.70
6567;BME280;3317;43.994;22.878;2023-08-30T09:58:02;99952.78;;;34.65;40.13
6567;BME280;3317;43.994;22.878;2023-08-30T10:00:31;99962.41;;;34.94;39.66
6567;BME280;3317;43.994;22.878;2023-08-30T10:02:59;99950.31;;;35.03;39.74
6567;BME280;3317;43.994;22.878;2023-08-30T10:05:27;99952.03;;;34.86;38.80
6567;BME280;3317;43.994;22.878;2023-08-30T10:07:54;99928.00;;;34.50;38.24
6567;BME280;3317;43.994;22.878;2023-08-30T10:10:22;99957.28;;;34.58;39.26
6567;BME280;3317;43.994;22.878;2023-08-30T10:12:49;99947.31;;;34.69;39.13
6567;BME280;3317;43.994;22.878;2023-08-30T10:15:16;99940.09;;;34.89;38.38
6567;BME280;3317;43.994;22.878;2023-08-30T10:17:48;99939.69;;;35.08;39.12
6567;BME280;3317;43.994;22.878;2023-08-30T10:20:19;99937.22;;;34.98;37.46
6567;BME280;3317;43.994;22.878;2023-08-30T10:22:47;99936.84;;;34.78;38.03
6567;BME280;3317;43.994;22.878;2023-08-30T10:25:20;99928.41;;;34.69;38.46
6567;BME280;3317;43.994;22.878;2023-08-30T10:27:49;99935.53;;;34.76;36.89
6567;BME280;3317;43.994;22.878;2023-08-30T10:30:18;99892.34;;;34.24;37.59
6567;BME280;3317;43.994;22.878;2023-08-30T10:32:47;99888.75;;;34.06;38.50
6567;BME280;3317;43.994;22.878;2023-08-30T10:35:15;99915.09;;;34.49;37.97
6567;BME280;3317;43.994;22.878;2023-08-30T10:37:53;99928.06;;;34.80;37.40
6567;BME280;3317;43.994;22.878;2023-08-30T10:40:20;99901.19;;;34.91;38.01
6567;BME280;3317;43.994;22.878;2023-08-30T10:42:58;99917.06;;;34.96;36.85
6567;BME280;3317;43.994;22.878;2023-08-30T10:45:25;99922.09;;;34.81;36.75
6567;BME280;3317;43.994;22.878;2023-08-30T10:47:57;99915.56;;;34.99;38.09
6567;BME280;3317;43.994;22.878;2023-08-30T10:50:28;99916.69;;;35.06;36.83
6567;BME280;3317;43.994;22.878;2023-08-30T10:52:56;99919.78;;;34.83;36.55
6567;BME280;3317;43.994;22.878;2023-08-30T10:55:23;99916.25;;;34.57;36.50
6567;BME280;3317;43.994;22.878;2023-08-30T10:57:58;99912.72;;;34.68;36.90
6567;BME280;3317;43.994;22.878;2023-08-30T11:00:28;99919.25;;;35.20;37.43
6567;BME280;3317;43.994;22.878;2023-08-30T11:02:56;99899.59;;;35.63;36.16
6567;BME280;3317;43.994;22.878;2023-08-30T11:05:24;99910.25;;;35.91;32.22
6567;BME280;3317;43.994;22.878;2023-08-30T11:07:52;99900.81;;;35.74;29.89
6567;BME280;3317;43.994;22.878;2023-08-30T11:10:21;99903.13;;;35.72;32.35
6567;BME280;3317;43.994;22.878;2023-08-30T11:12:48;99856.41;;;35.29;30.69
6567;BME280;3317;43.994;22.878;2023-08-30T11:15:16;99896.94;;;35.36;30.88
6567;BME280;3317;43.994;22.878;2023-08-30T11:17:43;99907.97;;;35.20;32.04
6567;BME280;3317;43.994;22.878;2023-08-30T11:20:13;99904.25;;;35.59;33.63
6567;BME280;3317;43.994;22.878;2023-08-30T11:22:43;99902.19;;;35.68;32.67
6567;BME280;3317;43.994;22.878;2023-08-30T11:25:11;99865.47;;;35.77;32.61
6567;BME280;3317;43.994;22.878;2023-08-30T11:27:40;99903.88;;;36.15;31.75
6567;BME280;3317;43.994;22.878;2023-08-30T11:30:08;99896.19;;;36.37;32.71
6567;BME280;3317;43.994;22.878;2023-08-30T11:32:37;99898.47;;;36.56;32.39
6567;BME280;3317;43.994;22.878;2023-08-30T11:35:05;99890.34;;;36.80;32.74
6567;BME280;3317;43.994;22.878;2023-08-30T11:37:34;99895.41;;;36.74;31.36
6567;BME280;3317;43.994;22.878;2023-08-30T11:40:02;99893.75;;;36.73;31.59
6567;BME280;3317;43.994;22.878;2023-08-30T11:42:33;99882.81;;;36.84;32.63
6567;BME280;3317;43.994;22.878;2023-08-30T11:45:00;99879.31;;;36.74;31.71
6567;BME280;3317;43.994;22.878;2023-08-30T11:47:27;99881.34;;;36.15;32.02
6567;BME280;3317;43.994;22.878;2023-08-30T11:49:56;99858.78;;;35.82;32.47
6567;BME280;3317;43.994;22.878;2023-08-30T11:52:24;99867.16;;;35.57;32.54
6567;BME280;3317;43.994;22.878;2023-08-30T11:54:53;99863.69;;;35.51;32.61
6567;BME280;3317;43.994;22.878;2023-08-30T11:57:21;99874.56;;;35.40;32.28
6567;BME280;3317;43.994;22.878;2023-08-30T11:59:48;99866.09;;;35.40;32.92
6567;BME280;3317;43.994;22.878;2023-08-30T12:02:16;99827.16;;;35.00;32.80
6567;BME280;3317;43.994;22.878;2023-08-30T12:04:44;99866.91;;;35.19;32.87
6567;BME280;3317;43.994;22.878;2023-08-30T12:07:21;99857.94;;;35.26;33.54
6567;BME280;3317;43.994;22.878;2023-08-30T12:09:49;99858.47;;;35.41;33.31
6567;BME280;3317;43.994;22.878;2023-08-30T12:12:17;99870.56;;;35.41;33.14
6567;BME280;3317;43.994;22.878;2023-08-30T12:14:44;99868.50;;;35.50;34.00
6567;BME280;3317;43.994;22.878;2023-08-30T12:17:11;99856.00;;;35.39;33.64
6567;BME280;3317;43.994;22.878;2023-08-30T12:19:38;99852.72;;;35.37;33.24
6567;BME280;3317;43.994;22.878;2023-08-30T12:22:06;99873.94;;;35.56;33.31
6567;BME280;3317;43.994;22.878;2023-08-30T12:24:43;99849.69;;;35.42;33.53
6567;BME280;3317;43.994;22.878;2023-08-30T12:27:10;99866.28;;;35.35;33.25
6567;BME280;3317;43.994;22.878;2023-08-30T12:29:39;99859.72;;;35.31;33.67
6567;BME280;3317;43.994;22.878;2023-08-30T12:32:07;99858.41;;;35.28;33.75
6567;BME280;3317;43.994;22.878;2023-08-30T12:34:34;99847.84;;;35.25;33.89
6567;BME280;3317;43.994;22.878;2023-08-30T12:37:02;99838.97;;;35.14;33.83
6567;BME280;3317;43.994;22.878;2023-08-30T12:39:29;99856.69;;;35.15;34.32
6567;BME280;3317;43.994;22.878;2023-08-30T12:41:56;99849.94;;;35.07;34.44
6567;BME280;3317;43.994;22.878;2023-08-30T12:44:23;99858.09;;;35.00;34.85
6567;BME280;3317;43.994;22.878;2023-08-30T12:46:52;99854.50;;;34.90;34.67
6567;BME280;3317;43.994;22.878;2023-08-30T12:49:19;99851.94;;;34.76;34.69
6567;BME280;3317;43.994;22.878;2023-08-30T12:51:46;99849.38;;;34.62;34.57
6567;BME280;3317;43.994;22.878;2023-08-30T12:54:13;99859.47;;;34.63;35.18
6567;BME280;3317;43.994;22.878;2023-08-30T12:56:40;99858.00;;;34.57;35.93
6567;BME280;3317;43.994;22.878;2023-08-30T12:59:07;99858.78;;;34.66;36.21
6567;BME280;3317;43.994;22.878;2023-08-30T13:01:34;99857.44;;;34.73;36.52
6567;BME280;3317;43.994;22.878;2023-08-30T13:04:02;99856.06;;;34.79;34.29
6567;BME280;3317;43.994;22.878;2023-08-30T13:06:30;99796.41;;;34.34;34.46
6567;BME280;3317;43.994;22.878;2023-08-30T13:08:57;99863.25;;;34.67;34.57
6567;BME280;3317;43.994;22.878;2023-08-30T13:11:24;99856.19;;;34.61;35.00
6567;BME280;3317;43.994;22.878;2023-08-30T13:13:53;99813.41;;;34.38;34.33